Time;durP1;ratioP1;P1;durP2;ratioP2;P2;SDS_P1;SDS_P2;PMS_P1;PMS_P2;Temp;Humidity;BMP_temperature;BMP_pressure;BME280_temperature;BME280_humidity;BME280_pressure;Samples;Min_cycle;Max_cycle;Signal;HPM_P1;HPM_P2
2023/05/26 00:00:23;;;;;;;16.50;6.07;;;9.20;99.90;;;;;;5110401;28;20040;-61
2023/05/26 00:02:48;;;;;;;19.80;6.72;;;9.30;99.90;;;;;;5112139;28;20035;-61
2023/05/26 00:05:16;;;;;;;27.27;6.38;;;9.20;99.90;;;;;;5110877;28;20050;-61
2023/05/26 00:07:42;;;;;;;36.30;6.65;;;9.30;99.90;;;;;;5090377;28;20044;-62
2023/05/26 00:10:09;;;;;;;20.10;5.50;;;9.20;99.90;;;;;;5090961;28;20051;-61
2023/05/26 00:12:36;;;;;;;19.90;5.43;;;9.20;99.90;;;;;;5091710;28;20032;-61
2023/05/26 00:15:02;;;;;;;23.10;7.13;;;9.20;99.90;;;;;;5091640;28;20050;-61
2023/05/26 00:17:28;;;;;;;19.73;5.88;;;9.10;99.90;;;;;;5092531;28;20036;-61
2023/05/26 00:19:54;;;;;;;25.92;5.93;;;9.10;99.90;;;;;;5095229;28;20040;-61
2023/05/26 00:22:19;;;;;;;26.20;7.03;;;9.10;99.90;;;;;;5093771;28;20036;-61
2023/05/26 00:24:46;;;;;;;25.85;6.63;;;9.10;99.90;;;;;;5103527;28;20095;-61
2023/05/26 00:27:12;;;;;;;30.17;6.78;;;9.10;99.90;;;;;;5115574;28;20488;-61
2023/05/26 00:29:37;;;;;;;19.58;4.57;;;9.10;99.90;;;;;;5115387;28;20118;-61
2023/05/26 00:32:06;;;;;;;22.80;5.82;;;9.10;99.90;;;;;;5108142;28;20040;-61
2023/05/26 00:34:35;;;;;;;24.35;5.88;;;9.10;99.90;;;;;;5094364;28;20040;-61
2023/05/26 00:37:01;;;;;;;22.27;6.22;;;9.00;99.90;;;;;;5085243;28;20039;-61
2023/05/26 00:39:27;;;;;;;18.95;6.10;;;9.10;99.90;;;;;;5093803;28;20046;-61
2023/05/26 00:41:54;;;;;;;25.30;5.78;;;9.10;99.90;;;;;;5093749;28;20082;-61
2023/05/26 00:44:21;;;;;;;20.80;6.07;;;9.00;99.90;;;;;;5093287;28;20068;-61
2023/05/26 00:46:46;;;;;;;21.80;5.63;;;9.00;99.90;;;;;;5105351;28;20126;-61
2023/05/26 00:49:12;;;;;;;18.52;5.68;;;9.00;99.90;;;;;;5113627;28;20540;-60
2023/05/26 00:51:38;;;;;;;26.60;5.28;;;9.00;99.90;;;;;;5114803;28;20488;-60
2023/05/26 00:54:06;;;;;;;26.40;6.20;;;9.00;99.90;;;;;;5110842;28;20043;-61
2023/05/26 00:56:34;;;;;;;17.83;5.30;;;9.00;99.90;;;;;;5092838;28;20040;-60
2023/05/26 00:59:02;;;;;;;23.25;6.07;;;9.00;99.90;;;;;;5104827;28;20071;-61
2023/05/26 01:01:29;;;;;;;21.27;7.32;;;8.90;99.90;;;;;;5095362;28;20044;-61
2023/05/26 01:03:55;;;;;;;24.40;7.53;;;8.90;99.90;;;;;;5096227;28;20032;-61
2023/05/26 01:06:22;;;;;;;24.92;6.32;;;8.90;99.90;;;;;;5100027;28;20039;-61
2023/05/26 01:08:48;;;;;;;24.30;6.60;;;8.90;99.90;;;;;;5114742;28;20039;-61
2023/05/26 01:11:21;;;;;;;20.63;5.90;;;8.90;99.90;;;;;;5112896;28;20427;-61
2023/05/26 01:13:52;;;;;;;26.52;5.90;;;8.90;99.90;;;;;;5112778;28;20036;-61
2023/05/26 01:16:21;;;;;;;26.20;6.07;;;8.90;99.90;;;;;;5113108;28;20043;-61
2023/05/26 01:19:19;;;;;;;20.67;5.95;;;8.80;99.90;;;;;;5114717;28;20067;-61
2023/05/26 01:21:48;;;;;;;17.80;5.60;;;8.80;99.90;;;;;;5112065;28;20047;-61
2023/05/26 01:24:17;;;;;;;26.25;6.68;;;8.80;99.90;;;;;;5093948;28;20119;-61
2023/05/26 01:26:52;;;;;;;21.38;6.35;;;8.80;99.90;;;;;;5098298;28;20043;-61
2023/05/26 01:29:21;;;;;;;20.60;5.38;;;8.80;99.90;;;;;;5112912;28;20119;-61
2023/05/26 01:31:47;;;;;;;27.05;6.25;;;8.80;99.90;;;;;;5113156;28;20075;-61
2023/05/26 01:34:13;;;;;;;24.48;6.57;;;8.80;99.90;;;;;;5106815;28;20063;-61
2023/05/26 01:36:38;;;;;;;24.10;6.25;;;8.70;99.90;;;;;;5091571;28;20044;-61
2023/05/26 01:39:07;;;;;;;21.75;5.53;;;8.70;99.90;;;;;;5092594;28;20044;-61
2023/05/26 01:41:50;;;;;;;20.55;6.50;;;8.70;99.90;;;;;;5092638;28;20040;-61
2023/05/26 01:44:35;;;;;;;20.15;5.55;;;8.70;99.90;;;;;;5092241;28;20053;-61
2023/05/26 01:47:01;;;;;;;;;;;8.70;99.90;;;;;;5106969;28;20078;-61
2023/05/26 01:49:28;;;;;;;17.33;4.78;;;8.60;99.90;;;;;;5094844;28;19995;-61
2023/05/26 01:52:03;;;;;;;18.92;5.30;;;8.60;99.90;;;;;;5114073;28;20039;-61
2023/05/26 01:54:35;;;;;;;16.88;5.10;;;8.60;99.90;;;;;;5112145;28;20059;-61
2023/05/26 01:57:02;;;;;;;20.35;5.45;;;8.50;99.90;;;;;;5112072;28;20086;-61
2023/05/26 01:59:30;;;;;;;28.17;5.35;;;8.50;99.90;;;;;;5098639;28;20884;-61
2023/05/26 02:01:56;;;;;;;22.98;5.63;;;8.50;99.90;;;;;;5093365;28;20103;-61
2023/05/26 02:04:21;;;;;;;20.83;5.95;;;8.50;99.90;;;;;;5090676;28;20568;-61
2023/05/26 02:06:47;;;;;;;18.60;5.40;;;8.50;99.90;;;;;;5093275;28;20118;-61
2023/05/26 02:09:13;;;;;;;22.48;6.47;;;8.50;99.90;;;;;;5091711;28;20090;-61
2023/05/26 02:11:38;;;;;;;16.80;4.57;;;8.50;99.90;;;;;;5090749;28;20040;-61
2023/05/26 02:14:04;;;;;;;21.52;6.72;;;8.50;99.90;;;;;;5092044;28;20119;-61
2023/05/26 02:16:32;;;;;;;21.92;6.63;;;8.50;99.90;;;;;;5092508;28;20028;-61
2023/05/26 02:18:58;;;;;;;22.00;5.15;;;8.50;99.90;;;;;;5101767;28;20055;-61
2023/05/26 02:21:24;;;;;;;24.30;5.57;;;8.40;99.90;;;;;;5094934;28;20044;-61
2023/05/26 02:23:49;;;;;;;17.67;5.50;;;8.50;99.90;;;;;;5093038;28;20044;-61
2023/05/26 02:26:15;;;;;;;18.73;5.90;;;8.50;99.90;;;;;;5092744;28;20423;-61
2023/05/26 02:28:41;;;;;;;25.10;5.95;;;8.60;99.90;;;;;;5091650;28;20130;-61
2023/05/26 02:31:07;;;;;;;24.45;6.40;;;8.60;99.90;;;;;;5091007;28;20123;-61
2023/05/26 02:33:32;;;;;;;21.75;5.97;;;8.60;99.90;;;;;;5092502;28;20150;-61
2023/05/26 02:35:58;;;;;;;17.65;5.13;;;8.70;99.90;;;;;;5103845;28;20051;-61
2023/05/26 02:38:24;;;;;;;16.75;5.50;;;8.70;99.90;;;;;;5111221;28;20426;-61
2023/05/26 02:40:50;;;;;;;19.75;5.10;;;8.80;99.90;;;;;;5111074;28;20089;-61
2023/05/26 02:43:16;;;;;;;20.60;5.25;;;8.80;99.90;;;;;;5111680;28;20047;-61
2023/05/26 02:45:42;;;;;;;20.20;7.60;;;8.90;99.90;;;;;;5110728;28;20043;-62
2023/05/26 02:48:08;;;;;;;17.70;4.78;;;8.90;99.90;;;;;;5113211;28;20114;-61
2023/05/26 02:50:34;;;;;;;22.40;5.72;;;8.90;99.90;;;;;;5112709;28;20031;-61
2023/05/26 02:52:59;;;;;;;24.00;5.10;;;8.90;99.90;;;;;;5112322;28;20042;-61
2023/05/26 02:55:25;;;;;;;22.75;5.75;;;8.90;99.90;;;;;;5111109;28;20124;-61
2023/05/26 02:57:51;;;;;;;19.10;6.10;;;8.90;99.90;;;;;;5113015;28;20446;-61
2023/05/26 03:00:18;;;;;;;27.45;6.75;;;8.90;99.90;;;;;;5111771;28;20047;-61
2023/05/26 03:02:44;;;;;;;19.35;5.93;;;8.80;99.90;;;;;;5109175;28;20096;-60
2023/05/26 03:05:10;;;;;;;25.02;5.65;;;8.80;99.90;;;;;;5092312;28;20435;-61
2023/05/26 03:07:36;;;;;;;18.80;4.97;;;8.80;99.90;;;;;;5090000;28;20040;-60
2023/05/26 03:10:02;;;;;;;24.52;6.05;;;8.80;99.90;;;;;;5092404;28;20043;-61
2023/05/26 03:12:27;;;;;;;17.67;5.75;;;8.70;99.90;;;;;;5090446;28;20119;-60
2023/05/26 03:14:54;;;;;;;22.10;5.55;;;8.70;99.90;;;;;;5091355;28;20119;-61
2023/05/26 03:17:20;;;;;;;26.23;6.07;;;8.70;99.90;;;;;;5090546;28;20472;-61
2023/05/26 03:19:46;;;;;;;17.83;4.93;;;8.60;99.90;;;;;;5091319;28;20165;-61
2023/05/26 03:22:11;;;;;;;23.60;7.65;;;8.60;99.90;;;;;;5091357;28;20157;-61
2023/05/26 03:24:37;;;;;;;18.50;5.40;;;8.60;99.90;;;;;;5090637;28;20072;-60
2023/05/26 03:27:03;;;;;;;19.45;5.50;;;8.50;99.90;;;;;;5091606;28;20054;-61
2023/05/26 03:29:30;;;;;;;20.98;5.30;;;8.50;99.90;;;;;;5092261;28;20040;-60
2023/05/26 03:31:56;;;;;;;20.20;5.25;;;8.50;99.90;;;;;;5111455;28;20040;-61
2023/05/26 03:34:24;;;;;;;20.35;5.82;;;8.40;99.90;;;;;;5110983;28;20547;-61
2023/05/26 03:36:50;;;;;;;20.20;4.88;;;8.40;99.90;;;;;;5112693;28;20050;-60
2023/05/26 03:39:16;;;;;;;25.67;6.05;;;8.40;99.90;;;;;;5112239;28;20403;-61
2023/05/26 03:41:42;;;;;;;23.88;6.22;;;8.40;99.90;;;;;;5111445;28;20046;-61
2023/05/26 03:44:08;;;;;;;23.13;5.85;;;8.40;99.90;;;;;;5111214;28;20051;-61
2023/05/26 03:46:34;;;;;;;24.58;6.50;;;8.40;99.90;;;;;;5110890;28;20476;-61
2023/05/26 03:49:00;;;;;;;21.02;5.22;;;8.40;99.90;;;;;;5111738;28;20377;-61
2023/05/26 03:51:26;;;;;;;17.25;5.30;;;8.40;99.90;;;;;;5112299;28;20525;-61
2023/05/26 03:53:52;;;;;;;22.45;5.28;;;8.30;99.90;;;;;;5098168;28;20043;-61
2023/05/26 03:56:18;;;;;;;17.73;5.32;;;8.30;99.90;;;;;;5115213;28;20040;-61
2023/05/26 03:58:44;;;;;;;20.45;6.80;;;8.40;99.90;;;;;;5089019;28;20404;-61
2023/05/26 04:01:10;;;;;;;31.13;7.28;;;8.30;99.90;;;;;;5094077;28;20051;-61
2023/05/26 04:03:36;;;;;;;19.98;5.60;;;8.40;99.90;;;;;;5093528;28;20032;-61
2023/05/26 04:06:02;;;;;;;23.98;6.70;;;8.40;99.90;;;;;;5095866;28;20040;-61
2023/05/26 04:08:28;;;;;;;22.35;4.55;;;8.40;99.90;;;;;;5098989;28;20086;-61
2023/05/26 04:10:54;;;;;;;19.88;5.68;;;8.40;99.90;;;;;;5113916;28;20085;-61
2023/05/26 04:13:19;;;;;;;17.15;5.18;;;8.40;99.90;;;;;;5115381;27;20043;-61
2023/05/26 04:15:45;;;;;;;18.38;5.03;;;8.50;99.90;;;;;;5114519;28;20043;-61
2023/05/26 04:18:11;;;;;;;29.02;5.65;;;8.50;99.90;;;;;;5113846;28;20035;-61
2023/05/26 04:20:37;;;;;;;23.13;6.05;;;8.50;99.90;;;;;;5114622;28;20496;-61
2023/05/26 04:23:02;;;;;;;19.83;6.25;;;8.50;99.90;;;;;;5115895;28;20144;-61
2023/05/26 04:25:28;;;;;;;23.70;6.35;;;8.60;99.90;;;;;;5113207;28;20500;-61
2023/05/26 04:27:57;;;;;;;20.08;4.65;;;8.60;99.90;;;;;;5112721;28;20051;-61
2023/05/26 04:30:23;;;;;;;19.85;6.05;;;8.70;99.90;;;;;;5095113;28;20050;-61
2023/05/26 04:32:49;;;;;;;20.02;4.80;;;8.80;99.90;;;;;;5104432;28;20118;-61
2023/05/26 04:35:15;;;;;;;20.83;5.30;;;8.90;99.90;;;;;;5115158;28;20488;-61
2023/05/26 04:37:42;;;;;;;15.50;5.90;;;8.90;99.90;;;;;;5114391;28;20067;-61
2023/05/26 04:40:09;;;;;;;21.90;5.50;;;9.00;99.90;;;;;;5110461;28;20034;-61
2023/05/26 04:42:36;;;;;;;23.70;5.90;;;9.10;99.90;;;;;;5096926;28;20126;-61
2023/05/26 04:45:05;;;;;;;20.55;5.13;;;9.20;99.90;;;;;;5114510;28;20060;-61
2023/05/26 04:47:36;;;;;;;23.42;6.88;;;9.20;99.90;;;;;;5113861;28;20383;-61
2023/05/26 04:50:02;;;;;;;23.95;6.00;;;9.30;99.90;;;;;;5115261;28;20101;-61
2023/05/26 04:52:28;;;;;;;28.42;5.50;;;9.40;99.90;;;;;;5110889;28;20085;-61
2023/05/26 04:54:54;;;;;;;20.60;5.93;;;9.50;99.90;;;;;;5115093;28;20427;-61
2023/05/26 04:57:20;;;;;;;21.80;6.57;;;9.60;99.90;;;;;;5114810;28;20035;-61
2023/05/26 04:59:46;;;;;;;18.13;5.68;;;9.70;99.90;;;;;;5112882;28;20035;-61
2023/05/26 05:02:12;;;;;;;24.83;6.60;;;9.80;99.90;;;;;;5109741;28;20184;-61
2023/05/26 05:04:42;;;;;;;18.98;5.45;;;9.90;99.90;;;;;;5092013;28;20044;-61
2023/05/26 05:07:08;;;;;;;24.88;6.80;;;10.00;99.90;;;;;;5093749;28;20426;-61
2023/05/26 05:09:34;;;;;;;19.30;6.93;;;10.20;99.90;;;;;;5092978;28;20032;-61
2023/05/26 05:12:00;;;;;;;17.23;5.25;;;10.30;99.90;;;;;;5093230;28;20491;-61
2023/05/26 05:14:26;;;;;;;15.30;5.22;;;10.40;99.90;;;;;;5092732;28;20047;-61
2023/05/26 05:16:51;;;;;;;18.20;5.13;;;10.50;99.90;;;;;;5094524;28;20040;-61
2023/05/26 05:19:17;;;;;;;27.25;6.63;;;10.60;99.90;;;;;;5094147;28;20028;-61
2023/05/26 05:21:43;;;;;;;15.80;5.13;;;10.70;99.90;;;;;;5091717;28;20401;-61
2023/05/26 05:24:08;;;;;;;26.40;7.35;;;10.70;99.90;;;;;;5093652;28;20101;-62
2023/05/26 05:26:34;;;;;;;21.52;5.43;;;10.80;99.90;;;;;;5092724;28;20047;-61
2023/05/26 05:29:00;;;;;;;23.10;5.65;;;10.90;99.90;;;;;;5093261;28;20040;-61
2023/05/26 05:31:25;;;;;;;23.42;5.47;;;11.00;99.90;;;;;;5092240;28;20554;-61
2023/05/26 05:33:51;;;;;;;15.13;4.35;;;11.10;99.90;;;;;;5092417;28;20118;-61
2023/05/26 05:36:17;;;;;;;18.40;5.15;;;11.20;99.90;;;;;;5104364;28;20036;-61
2023/05/26 05:38:42;;;;;;;16.25;4.90;;;11.40;99.90;;;;;;5114084;28;20039;-61
2023/05/26 05:41:09;;;;;;;17.95;5.45;;;11.50;99.90;;;;;;5095063;28;20404;-61
2023/05/26 05:43:34;;;;;;;18.23;5.25;;;11.50;99.90;;;;;;5093955;28;20082;-61
2023/05/26 05:46:00;;;;;;;18.60;5.05;;;11.60;99.90;;;;;;5092613;28;20087;-61
2023/05/26 05:48:26;;;;;;;17.92;5.75;;;11.60;99.90;;;;;;5103644;28;20039;-61
2023/05/26 05:50:52;;;;;;;20.95;5.15;;;11.60;99.90;;;;;;5114159;28;20095;-61
2023/05/26 05:53:17;;;;;;;20.08;5.07;;;11.60;99.90;;;;;;5113653;28;20039;-61
2023/05/26 05:55:46;;;;;;;19.98;5.28;;;11.60;99.90;;;;;;5111545;28;20127;-61
2023/05/26 05:58:12;;;;;;;18.70;5.40;;;11.70;99.90;;;;;;5108554;28;20044;-61
2023/05/26 06:00:38;;;;;;;14.55;4.63;;;11.70;99.90;;;;;;5103265;28;20094;-61
2023/05/26 06:03:04;;;;;;;14.25;3.83;;;11.80;99.90;;;;;;5095136;28;20082;-61
2023/05/26 06:05:29;;;;;;;17.02;4.20;;;11.80;99.90;;;;;;5113174;28;20472;-61
2023/05/26 06:07:55;;;;;;;16.08;4.85;;;11.90;99.90;;;;;;5112692;28;20046;-61
2023/05/26 06:10:20;;;;;;;18.63;5.90;;;12.00;99.90;;;;;;5111129;28;20047;-62
2023/05/26 06:12:46;;;;;;;17.13;5.32;;;12.10;99.90;;;;;;5100979;28;20039;-61
2023/05/26 06:15:12;;;;;;;11.68;3.90;;;12.10;99.90;;;;;;5092790;28;20044;-61
2023/05/26 06:17:38;;;;;;;12.70;4.57;;;12.10;99.90;;;;;;5090848;28;20082;-61
2023/05/26 06:20:04;;;;;;;23.38;5.43;;;12.10;99.90;;;;;;5093197;28;20032;-61
2023/05/26 06:22:29;;;;;;;15.35;4.63;;;12.10;99.90;;;;;;5092448;28;20043;-61
2023/05/26 06:24:55;;;;;;;16.10;5.00;;;12.20;99.90;;;;;;5105846;28;20032;-61
2023/05/26 06:27:21;;;;;;;16.85;5.65;;;12.20;99.90;;;;;;5112735;28;20082;-61
2023/05/26 06:29:47;;;;;;;15.48;4.18;;;12.20;99.90;;;;;;5112234;28;20075;-61
2023/05/26 06:32:12;;;;;;;17.25;5.15;;;12.20;99.90;;;;;;5105442;28;20093;-61
2023/05/26 06:34:39;;;;;;;15.38;3.97;;;12.30;99.90;;;;;;5100461;28;20035;-61
2023/05/26 06:37:05;;;;;;;19.10;4.45;;;12.30;99.90;;;;;;5098912;28;20447;-61
2023/05/26 06:39:31;;;;;;;11.45;4.53;;;12.40;99.90;;;;;;5090772;28;20040;-61
2023/05/26 06:41:56;;;;;;;15.68;4.15;;;12.40;99.90;;;;;;5110738;28;20077;-61
2023/05/26 06:44:23;;;;;;;16.88;4.22;;;12.50;99.90;;;;;;5098133;28;20045;-62
2023/05/26 06:46:49;;;;;;;19.95;5.00;;;12.60;99.90;;;;;;5103807;28;20040;-61
2023/05/26 06:49:15;;;;;;;12.65;4.60;;;12.60;99.90;;;;;;5094811;28;20039;-61
2023/05/26 06:51:40;;;;;;;13.57;3.90;;;12.60;99.90;;;;;;5111774;27;20040;-61
2023/05/26 06:54:06;;;;;;;16.55;4.25;;;12.60;99.90;;;;;;5092988;28;20114;-61
2023/05/26 06:56:32;;;;;;;15.05;4.00;;;12.70;99.90;;;;;;5087868;28;20511;-61
2023/05/26 06:58:58;;;;;;;14.52;4.45;;;12.70;99.90;;;;;;5100273;28;20489;-61
2023/05/26 07:01:23;;;;;;;12.15;4.28;;;12.80;99.90;;;;;;5090415;28;20051;-61
2023/05/26 07:03:49;;;;;;;13.77;3.85;;;12.80;99.90;;;;;;5100564;28;20036;-61
2023/05/26 07:06:15;;;;;;;23.55;5.18;;;12.80;99.90;;;;;;5094284;28;20040;-61
2023/05/26 07:08:40;;;;;;;12.73;3.80;;;12.80;99.90;;;;;;5103098;28;20051;-61
2023/05/26 07:11:06;;;;;;;15.55;4.15;;;12.80;99.90;;;;;;5107807;28;20047;-61
2023/05/26 07:13:32;;;;;;;14.65;4.00;;;12.80;99.90;;;;;;5093342;28;20055;-62
2023/05/26 07:15:58;;;;;;;12.70;3.88;;;12.80;99.90;;;;;;5105976;28;20044;-61
2023/05/26 07:18:23;;;;;;;12.18;3.85;;;12.90;99.90;;;;;;5089622;28;20036;-62
2023/05/26 07:20:49;;;;;;;13.77;4.25;;;13.00;99.90;;;;;;5103422;28;20039;-62
2023/05/26 07:23:15;;;;;;;16.90;4.22;;;13.00;99.90;;;;;;5087531;28;20392;-62
2023/05/26 07:25:41;;;;;;;13.32;4.10;;;13.00;99.90;;;;;;5089205;28;20040;-62
2023/05/26 07:28:07;;;;;;;18.65;4.47;;;13.10;99.90;;;;;;5092022;28;20145;-62
2023/05/26 07:30:34;;;;;;;12.80;3.67;;;13.10;99.90;;;;;;5094761;28;20480;-62
2023/05/26 07:33:00;;;;;;;13.35;4.20;;;13.20;99.90;;;;;;5113040;27;20039;-62
2023/05/26 07:35:25;;;;;;;12.93;4.35;;;13.30;99.90;;;;;;5110709;27;20047;-62
2023/05/26 07:37:51;;;;;;;14.93;3.97;;;13.40;99.90;;;;;;5097152;28;20040;-62
2023/05/26 07:40:17;;;;;;;11.15;3.92;;;13.50;99.90;;;;;;5076248;28;20043;-62
2023/05/26 07:42:44;;;;;;;13.98;4.25;;;13.50;99.90;;;;;;5111494;28;20043;-62
2023/05/26 07:45:10;;;;;;;12.45;4.20;;;13.40;99.90;;;;;;5094987;28;20059;-62
2023/05/26 07:47:36;;;;;;;12.82;3.70;;;13.40;99.90;;;;;;5107460;28;20036;-62
2023/05/26 07:50:03;;;;;;;15.73;3.75;;;13.50;99.90;;;;;;5108468;28;20066;-61
2023/05/26 07:52:28;;;;;;;15.52;4.85;;;13.50;99.90;;;;;;5094727;28;20818;-61
2023/05/26 07:54:55;;;;;;;12.40;3.33;;;13.50;99.90;;;;;;5100371;28;20050;-62
2023/05/26 07:57:20;;;;;;;13.52;4.20;;;13.60;99.90;;;;;;5111158;28;20065;-61
2023/05/26 07:59:46;;;;;;;13.07;3.63;;;13.70;99.90;;;;;;5110509;28;20088;-62
2023/05/26 08:02:11;;;;;;;14.52;3.97;;;13.70;99.90;;;;;;5103397;28;20046;-61
2023/05/26 08:04:37;;;;;;;11.50;3.95;;;13.80;99.90;;;;;;5113203;28;20093;-61
2023/05/26 08:07:04;;;;;;;16.55;4.72;;;13.80;99.90;;;;;;5110636;28;20055;-61
2023/05/26 08:09:29;;;;;;;14.30;3.53;;;13.90;99.90;;;;;;5101017;28;20125;-62
2023/05/26 08:11:55;;;;;;;15.45;4.13;;;13.80;99.90;;;;;;5096577;28;20069;-61
2023/05/26 08:14:23;;;;;;;12.57;3.80;;;13.80;99.90;;;;;;5109937;27;20111;-62
2023/05/26 08:16:48;;;;;;;13.82;3.03;;;13.80;99.90;;;;;;5102075;28;20036;-61
2023/05/26 08:19:14;;;;;;;10.57;3.78;;;13.80;99.90;;;;;;5112162;28;20051;-62
2023/05/26 08:21:40;;;;;;;17.33;4.18;;;13.80;99.90;;;;;;5096626;28;20047;-62
2023/05/26 08:24:06;;;;;;;11.77;3.47;;;13.90;99.90;;;;;;5111556;28;20448;-60
2023/05/26 08:26:31;;;;;;;10.27;3.20;;;14.00;99.90;;;;;;5104509;28;20043;-62
2023/05/26 08:28:57;;;;;;;15.02;3.60;;;13.90;99.90;;;;;;5104548;28;20045;-62
2023/05/26 08:31:22;;;;;;;13.40;4.05;;;13.90;99.90;;;;;;5097768;28;20090;-61
2023/05/26 08:33:48;;;;;;;10.90;3.95;;;13.80;99.90;;;;;;5094764;28;20044;-61
2023/05/26 08:36:14;;;;;;;15.63;5.45;;;13.90;99.90;;;;;;5108419;28;20050;-61
2023/05/26 08:38:40;;;;;;;16.20;4.45;;;13.90;99.90;;;;;;5097661;28;20084;-61
2023/05/26 08:41:07;;;;;;;15.63;4.70;;;13.90;99.90;;;;;;5113313;28;20040;-61
2023/05/26 08:43:45;;;;;;;12.18;3.75;;;14.00;99.90;;;;;;5112375;28;20059;-61
2023/05/26 08:46:12;;;;;;;8.93;4.10;;;14.00;99.90;;;;;;5115009;28;20510;-62
2023/05/26 08:48:39;;;;;;;15.18;3.83;;;14.00;99.90;;;;;;5112826;28;20044;-61
2023/05/26 08:51:09;;;;;;;13.15;3.42;;;14.00;99.90;;;;;;5092895;28;20484;-61
2023/05/26 08:53:36;;;;;;;19.40;5.10;;;14.00;99.90;;;;;;5105764;28;20043;-61
2023/05/26 08:56:03;;;;;;;15.18;4.25;;;14.00;99.90;;;;;;5110402;28;20036;-61
2023/05/26 08:58:31;;;;;;;13.75;3.75;;;14.00;99.90;;;;;;5101774;28;20040;-61
2023/05/26 09:00:57;;;;;;;16.08;4.00;;;14.20;99.90;;;;;;5112849;28;20061;-61
2023/05/26 09:03:23;;;;;;;11.77;3.58;;;14.30;99.90;;;;;;5107407;28;20480;-61
2023/05/26 09:05:49;;;;;;;12.25;4.38;;;14.50;99.90;;;;;;5102833;28;20050;-61
2023/05/26 09:08:15;;;;;;;15.00;4.53;;;14.30;98.90;;;;;;5114181;28;20383;-61
2023/05/26 09:10:41;;;;;;;10.77;3.67;;;14.20;98.70;;;;;;5099975;27;20043;-61
2023/05/26 09:13:08;;;;;;;9.70;3.90;;;14.10;98.70;;;;;;5083650;28;20123;-61
2023/05/26 09:15:36;;;;;;;10.65;3.88;;;14.20;99.20;;;;;;5108332;28;20124;-61
2023/05/26 09:18:06;;;;;;;17.48;4.20;;;14.50;99.40;;;;;;5092989;28;20036;-61
2023/05/26 09:20:34;;;;;;;11.55;3.33;;;14.60;98.70;;;;;;5106573;28;20144;-61
2023/05/26 09:22:59;;;;;;;14.68;4.32;;;14.60;98.50;;;;;;5113612;28;20035;-61
2023/05/26 09:25:43;;;;;;;14.35;4.25;;;14.60;98.50;;;;;;5108618;27;20039;-61
2023/05/26 09:28:11;;;;;;;19.58;3.97;;;14.80;98.90;;;;;;5105115;28;20451;-61
2023/05/26 09:30:38;;;;;;;15.43;4.72;;;15.00;98.90;;;;;;5110323;28;20047;-61
2023/05/26 09:33:06;;;;;;;13.65;3.42;;;15.00;98.10;;;;;;5109665;28;20047;-61
2023/05/26 09:35:40;;;;;;;16.58;4.22;;;15.00;97.70;;;;;;5105750;28;20071;-61
2023/05/26 09:38:07;;;;;;;14.35;3.70;;;14.90;98.10;;;;;;5102428;28;20036;-61
2023/05/26 09:40:33;;;;;;;11.07;3.72;;;14.80;98.50;;;;;;5105442;28;20050;-61
2023/05/26 09:43:00;;;;;;;14.50;3.13;;;14.70;98.10;;;;;;5110635;28;20484;-61
2023/05/26 09:45:32;;;;;;;14.13;3.63;;;14.70;98.50;;;;;;5090086;28;20116;-61
2023/05/26 09:47:58;;;;;;;11.10;4.35;;;14.70;98.70;;;;;;5091880;28;20050;-62
2023/05/26 09:50:24;;;;;;;16.27;4.70;;;14.70;98.40;;;;;;5091064;28;20621;-61
2023/05/26 09:52:50;;;;;;;13.13;3.88;;;14.70;98.50;;;;;;5106019;28;20133;-61
2023/05/26 09:55:17;;;;;;;17.92;4.05;;;14.70;98.80;;;;;;5099411;28;20040;-62
2023/05/26 09:57:45;;;;;;;13.15;3.40;;;14.80;98.90;;;;;;5105567;28;20104;-61
2023/05/26 10:00:13;;;;;;;14.60;4.50;;;14.80;98.80;;;;;;5110897;28;20404;-62
2023/05/26 10:02:40;;;;;;;12.68;3.55;;;15.00;99.10;;;;;;5100278;28;20097;-61
2023/05/26 10:05:06;;;;;;;12.55;4.28;;;15.00;98.50;;;;;;5099713;28;20131;-61
2023/05/26 10:07:32;;;;;;;10.60;3.22;;;15.20;99.00;;;;;;5098790;28;20040;-61
2023/05/26 10:10:00;;;;;;;16.67;4.13;;;15.20;98.30;;;;;;5103835;28;20054;-61
2023/05/26 10:12:27;;;;;;;12.73;4.07;;;15.30;98.10;;;;;;5094574;28;20404;-62
2023/05/26 10:14:54;;;;;;;12.55;4.35;;;15.40;98.10;;;;;;5098703;28;20127;-61
2023/05/26 10:17:21;;;;;;;12.10;3.65;;;15.30;96.90;;;;;;5088616;28;20036;-62
2023/05/26 10:19:48;;;;;;;15.18;5.93;;;15.50;97.80;;;;;;5091670;28;20489;-61
2023/05/26 10:22:42;;;;;;;14.13;4.03;;;15.50;97.80;;;;;;5096420;28;20042;-61
2023/05/26 10:25:17;;;;;;;14.50;4.13;;;15.40;97.30;;;;;;5111639;28;20082;-61
2023/05/26 10:28:06;;;;;;;17.27;4.75;;;15.40;98.60;;;;;;5102197;28;20130;-61
2023/05/26 10:30:32;;;;;;;17.75;4.63;;;15.50;97.00;;;;;;5092412;28;20048;-62
2023/05/26 10:33:15;;;;;;;12.35;3.70;;;15.40;97.50;;;;;;5095448;28;20504;-62
2023/05/26 10:35:56;;;;;;;12.73;3.92;;;15.40;97.10;;;;;;5107951;28;20047;-62
2023/05/26 10:38:26;;;;;;;12.50;4.13;;;15.40;96.70;;;;;;5093085;28;20066;-62
2023/05/26 10:40:52;;;;;;;13.35;4.28;;;15.30;96.70;;;;;;5099715;28;20440;-62
2023/05/26 10:43:26;;;;;;;12.25;4.05;;;15.30;96.60;;;;;;5107872;28;20256;-62
2023/05/26 10:45:57;;;;;;;12.02;4.07;;;15.40;96.70;;;;;;5106384;28;20105;-62
2023/05/26 10:48:51;;;;;;;13.18;4.15;;;15.40;96.40;;;;;;5108543;28;20043;-61
2023/05/26 10:51:28;;;;;;;11.88;3.25;;;15.40;95.30;;;;;;5083027;28;20082;-62
2023/05/26 10:53:56;;;;;;;15.68;3.88;;;15.30;95.70;;;;;;5073388;28;20067;-62
2023/05/26 10:56:48;;;;;;;14.40;4.03;;;15.30;96.40;;;;;;5089915;28;20439;-61
2023/05/26 10:59:33;;;;;;;16.60;4.38;;;15.20;95.60;;;;;;5095720;28;20086;-62
2023/05/26 11:02:06;;;;;;;15.50;4.05;;;15.30;96.40;;;;;;5095627;28;20545;-61
2023/05/26 11:04:46;;;;;;;16.33;3.92;;;15.40;97.00;;;;;;5090339;28;20039;-61
2023/05/26 11:07:19;;;;;;;16.67;5.00;;;15.50;97.30;;;;;;5095618;28;20381;-62
2023/05/26 11:10:02;;;;;;;14.82;5.05;;;15.60;96.80;;;;;;5091127;28;20044;-61
2023/05/26 11:12:48;;;;;;;18.48;4.72;;;15.60;97.00;;;;;;5095550;28;20063;-62
2023/05/26 11:15:26;;;;;;;14.85;4.00;;;15.60;96.90;;;;;;5095786;28;20082;-62
2023/05/26 11:17:56;;;;;;;16.73;4.75;;;15.70;96.90;;;;;;5109719;28;20048;-62
2023/05/26 11:20:23;;;;;;;12.52;5.47;;;15.90;97.10;;;;;;5108243;28;20112;-62
2023/05/26 11:22:55;;;;;;;15.38;4.95;;;16.00;96.90;;;;;;5100951;28;20473;-61
2023/05/26 11:25:21;;;;;;;16.10;5.35;;;16.30;97.20;;;;;;5082626;28;20055;-62
2023/05/26 11:27:50;;;;;;;20.17;5.53;;;16.50;97.40;;;;;;5072090;28;20048;-62
2023/05/26 11:30:18;;;;;;;16.83;5.28;;;16.80;97.90;;;;;;5098168;28;20525;-61
2023/05/26 11:32:45;;;;;;;18.08;5.38;;;16.70;97.30;;;;;;5108917;28;20036;-62
2023/05/26 11:35:25;;;;;;;11.52;3.90;;;16.90;97.50;;;;;;5108161;28;20492;-62
2023/05/26 11:37:51;;;;;;;14.95;4.90;;;16.50;95.00;;;;;;5095605;28;20079;-62
2023/05/26 11:40:17;;;;;;;12.43;4.93;;;16.50;96.10;;;;;;5087112;28;20042;-62
2023/05/26 11:42:51;;;;;;;16.63;4.63;;;16.40;97.20;;;;;;5088139;28;20071;-62
2023/05/26 11:45:17;;;;;;;11.48;4.47;;;16.20;96.80;;;;;;5087685;28;20048;-62
2023/05/26 11:47:43;;;;;;;20.90;5.32;;;15.90;97.00;;;;;;5085753;28;20052;-61
2023/05/26 11:50:10;;;;;;;16.52;5.60;;;15.80;97.60;;;;;;5087758;28;20054;-62
2023/05/26 11:52:42;;;;;;;10.55;4.13;;;15.80;97.40;;;;;;5095285;28;20054;-62
2023/05/26 11:55:12;;;;;;;16.98;5.60;;;15.60;97.00;;;;;;5108325;28;20048;-62
2023/05/26 11:57:39;;;;;;;16.23;4.25;;;15.50;97.70;;;;;;5090665;28;20126;-62
2023/05/26 12:00:10;;;;;;;12.45;3.72;;;15.50;97.80;;;;;;5108065;28;20373;-61
2023/05/26 12:02:37;;;;;;;18.23;4.75;;;15.70;97.20;;;;;;5109272;28;20047;-61
2023/05/26 12:05:21;;;;;;;17.58;5.47;;;15.80;97.50;;;;;;5108479;28;20500;-62
2023/05/26 12:08:03;;;;;;;15.88;5.28;;;15.90;97.20;;;;;;5107327;28;20446;-62
2023/05/26 12:10:30;;;;;;;18.85;5.05;;;15.80;98.40;;;;;;5109456;28;20046;-61
2023/05/26 12:12:56;;;;;;;15.98;4.63;;;15.60;98.90;;;;;;5110186;28;20043;-62
2023/05/26 12:15:23;;;;;;;15.32;5.63;;;15.40;98.80;;;;;;5093529;28;20055;-62
2023/05/26 12:17:53;;;;;;;17.50;5.30;;;15.50;99.00;;;;;;5111442;28;20039;-62
2023/05/26 12:20:20;;;;;;;15.57;4.28;;;15.40;99.20;;;;;;5109172;28;20086;-62
2023/05/26 12:23:01;;;;;;;14.75;4.70;;;15.40;99.10;;;;;;5100078;28;20039;-62
2023/05/26 12:25:31;;;;;;;12.75;4.97;;;15.30;99.50;;;;;;5094662;28;20448;-61
2023/05/26 12:27:57;;;;;;;20.75;6.85;;;15.20;99.90;;;;;;5113199;28;20048;-61
2023/05/26 12:30:26;;;;;;;16.80;5.50;;;15.30;99.90;;;;;;5102824;28;20043;-62
2023/05/26 12:32:53;;;;;;;17.23;4.70;;;15.30;99.90;;;;;;5093257;28;20039;-61
2023/05/26 12:35:18;;;;;;;20.17;5.53;;;15.40;99.90;;;;;;5091522;28;20830;-61
2023/05/26 12:37:44;;;;;;;14.48;4.50;;;15.50;99.90;;;;;;5090668;28;20043;-61
2023/05/26 12:40:10;;;;;;;18.58;5.38;;;15.60;99.90;;;;;;5090869;28;20079;-62
2023/05/26 12:42:37;;;;;;;13.00;4.63;;;15.60;99.90;;;;;;5090296;28;20044;-61